createdAt,value
2023-04-28T00:01:50.675Z,49.08
2023-04-28T00:04:17.589Z,49.20
2023-04-28T00:06:43.485Z,49.08
2023-04-28T00:09:09.894Z,49.18
2023-04-28T00:11:36.311Z,49.21
2023-04-28T00:14:02.770Z,49.39
2023-04-28T00:16:29.247Z,49.34
2023-04-28T00:18:55.557Z,49.41
2023-04-28T00:21:22.059Z,49.40
2023-04-28T00:23:48.439Z,49.32
2023-04-28T00:26:14.950Z,49.29
2023-04-28T00:28:41.312Z,49.30
2023-04-28T00:31:09.127Z,49.29
2023-04-28T00:33:34.243Z,49.54
2023-04-28T00:36:00.706Z,49.41
2023-04-28T00:38:27.067Z,49.34
2023-04-28T00:40:53.504Z,49.47
2023-04-28T00:43:19.951Z,49.53
2023-04-28T00:45:46.507Z,49.63
2023-04-28T00:48:12.825Z,49.91
2023-04-28T00:50:39.503Z,49.91
2023-04-28T00:53:05.917Z,49.95
2023-04-28T00:55:32.332Z,50.00
2023-04-28T00:57:58.795Z,50.17
2023-04-28T01:00:25.185Z,50.06
2023-04-28T01:02:51.733Z,50.34
2023-04-28T01:05:18.080Z,50.51
2023-04-28T01:07:44.457Z,50.40
2023-04-28T01:10:10.917Z,50.38
2023-04-28T01:12:37.280Z,50.47
2023-04-28T01:15:03.687Z,50.45
2023-04-28T01:17:30.188Z,50.65
2023-04-28T01:19:56.552Z,50.51
2023-04-28T01:22:23.028Z,50.50
2023-04-28T01:24:49.435Z,50.28
2023-04-28T01:27:15.934Z,50.30
2023-04-28T01:29:42.299Z,50.36
2023-04-28T01:32:08.690Z,50.57
2023-04-28T01:34:35.148Z,50.61
2023-04-28T01:37:01.628Z,50.56
2023-04-28T01:39:28.085Z,50.59
2023-04-28T01:41:54.610Z,50.70
2023-04-28T01:44:21.111Z,50.77
2023-04-28T01:46:47.511Z,51.00
2023-04-28T01:49:13.920Z,50.95
2023-04-28T01:51:40.435Z,50.99
2023-04-28T01:54:06.798Z,51.15
2023-04-28T01:56:33.268Z,50.96
2023-04-28T01:58:59.733Z,50.95
2023-04-28T02:01:26.136Z,50.99
2023-04-28T02:03:52.831Z,51.00
2023-04-28T02:06:18.991Z,51.05
2023-04-28T02:08:45.388Z,50.91
2023-04-28T02:11:11.834Z,51.02
2023-04-28T02:13:38.312Z,51.09
2023-04-28T02:16:04.744Z,51.06
2023-04-28T02:18:31.262Z,51.46
2023-04-28T02:20:57.636Z,51.57
2023-04-28T02:23:24.162Z,51.62
2023-04-28T02:25:50.548Z,51.47
2023-04-28T02:28:16.959Z,51.29
2023-04-28T02:30:43.338Z,51.22
2023-04-28T02:33:11.487Z,51.10
2023-04-28T02:35:36.287Z,51.25
2023-04-28T02:38:02.708Z,51.18
2023-04-28T02:40:29.125Z,51.23
2023-04-28T02:42:55.584Z,51.30
2023-04-28T02:45:22.069Z,51.30
2023-04-28T02:47:48.451Z,51.28
2023-04-28T02:50:15.013Z,51.32
2023-04-28T02:52:41.473Z,51.38
2023-04-28T02:55:07.917Z,51.42
2023-04-28T02:57:34.450Z,51.42
2023-04-28T03:00:00.796Z,51.39
2023-04-28T03:02:27.344Z,51.53
2023-04-28T03:04:53.811Z,51.51
2023-04-28T03:07:20.232Z,51.50
2023-04-28T03:09:46.557Z,51.56
2023-04-28T03:12:13.021Z,51.61
2023-04-28T03:14:39.408Z,51.62
2023-04-28T03:17:05.808Z,51.77
2023-04-28T03:19:32.184Z,51.92
2023-04-28T03:21:58.614Z,51.90
2023-04-28T03:24:24.986Z,51.92
2023-04-28T03:26:51.536Z,51.90
2023-04-28T03:29:18.207Z,52.03
2023-04-28T03:31:44.697Z,52.00
2023-04-28T03:34:11.019Z,52.13
2023-04-28T03:36:37.412Z,52.12
2023-04-28T03:39:03.833Z,52.06
2023-04-28T03:41:30.202Z,52.19
2023-04-28T03:43:56.699Z,52.14
2023-04-28T03:46:23.196Z,52.25
2023-04-28T03:48:49.561Z,52.30
2023-04-28T03:51:15.962Z,52.53
2023-04-28T03:53:42.474Z,52.78
2023-04-28T03:56:08.906Z,52.65
2023-04-28T03:58:35.318Z,52.61
2023-04-28T04:01:01.782Z,52.58
2023-04-28T04:03:28.358Z,52.61
2023-04-28T04:05:54.657Z,52.82
2023-04-28T04:08:20.992Z,52.67
2023-04-28T04:10:47.460Z,52.75
2023-04-28T04:13:13.829Z,52.96
2023-04-28T04:15:40.283Z,53.09
2023-04-28T04:18:06.760Z,52.99
2023-04-28T04:20:33.220Z,52.75
2023-04-28T04:22:59.632Z,52.77
2023-04-28T04:25:26.221Z,52.83
2023-04-28T04:27:52.565Z,52.45
2023-04-28T04:30:19.106Z,52.73
2023-04-28T04:32:45.584Z,52.43
2023-04-28T04:35:12.131Z,52.58
2023-04-28T04:37:38.558Z,52.73
2023-04-28T04:40:04.995Z,53.15
2023-04-28T04:42:31.468Z,53.42
2023-04-28T04:44:57.878Z,53.50
2023-04-28T04:47:24.337Z,53.30
2023-04-28T04:49:50.785Z,53.28
2023-04-28T04:52:17.185Z,53.05
2023-04-28T04:54:43.566Z,52.70
2023-04-28T04:57:10.004Z,52.64
2023-04-28T04:59:36.450Z,52.69
2023-04-28T05:02:02.988Z,52.63
2023-04-28T05:04:29.599Z,52.48
2023-04-28T05:06:55.903Z,62.30
2023-04-28T05:09:22.341Z,74.67
2023-04-28T05:11:48.984Z,79.78
2023-04-28T05:14:15.564Z,80.54
2023-04-28T05:16:42.935Z,75.09
2023-04-28T05:19:09.346Z,67.73
2023-04-28T05:21:35.699Z,63.79
2023-04-28T05:24:02.145Z,61.80
2023-04-28T05:26:28.607Z,61.14
2023-04-28T05:28:55.035Z,60.56
2023-04-28T05:31:21.480Z,59.89
2023-04-28T05:33:47.863Z,59.90
2023-04-28T05:36:14.249Z,58.95
2023-04-28T05:38:40.699Z,57.97
2023-04-28T05:41:07.166Z,57.77
2023-04-28T05:43:33.528Z,58.23
2023-04-28T05:46:00.213Z,57.52
2023-04-28T05:48:26.565Z,57.44
2023-04-28T05:50:53.025Z,57.09
2023-04-28T05:53:19.365Z,57.08
2023-04-28T05:55:45.996Z,56.49
2023-04-28T05:58:12.424Z,56.14
2023-04-28T06:00:38.934Z,55.69
2023-04-28T06:03:05.405Z,55.79
2023-04-28T06:05:32.118Z,55.67
2023-04-28T06:07:58.128Z,56.07
2023-04-28T06:10:24.596Z,55.66
2023-04-28T06:12:50.971Z,55.24
2023-04-28T06:15:17.434Z,55.14
2023-04-28T06:17:43.920Z,54.89
2023-04-28T06:20:10.340Z,54.65
2023-04-28T06:22:36.781Z,54.26
2023-04-28T06:25:03.166Z,54.36
2023-04-28T06:27:29.544Z,53.47
2023-04-28T06:29:55.922Z,52.94
2023-04-28T06:32:22.365Z,52.85
2023-04-28T06:34:48.725Z,52.93
2023-04-28T06:37:17.292Z,52.60
2023-04-28T06:39:43.776Z,51.70
2023-04-28T06:42:10.562Z,51.47
2023-04-28T06:44:36.993Z,51.43
2023-04-28T06:47:03.381Z,51.03
2023-04-28T06:49:29.801Z,50.74
2023-04-28T06:51:56.259Z,50.88
2023-04-28T06:54:22.680Z,49.99
2023-04-28T06:56:49.034Z,49.82
2023-04-28T06:59:15.583Z,49.44
2023-04-28T07:01:42.169Z,48.95
2023-04-28T07:04:08.750Z,48.78
2023-04-28T07:06:35.185Z,48.89
2023-04-28T07:09:01.615Z,48.80
2023-04-28T07:11:28.003Z,48.01
2023-04-28T07:13:54.475Z,47.93
2023-04-28T07:16:20.859Z,48.01
2023-04-28T07:18:47.206Z,47.54
2023-04-28T07:21:13.716Z,47.51
2023-04-28T07:23:41.325Z,46.87
2023-04-28T07:26:07.749Z,46.54
2023-04-28T07:28:34.160Z,46.37
2023-04-28T07:31:00.595Z,45.64
2023-04-28T07:33:27.052Z,45.19
2023-04-28T07:35:53.491Z,44.79
2023-04-28T07:38:19.849Z,44.15
2023-04-28T07:40:46.426Z,44.19
2023-04-28T07:43:13.227Z,43.79
2023-04-28T07:45:39.617Z,43.32
2023-04-28T07:48:06.035Z,43.12
2023-04-28T07:50:32.361Z,42.15
2023-04-28T07:52:58.882Z,42.15
2023-04-28T07:55:25.300Z,42.48
2023-04-28T07:57:51.731Z,42.11
2023-04-28T08:00:19.151Z,41.43
2023-04-28T08:02:45.748Z,41.28
2023-04-28T08:05:12.190Z,40.96
2023-04-28T08:07:38.616Z,41.20
2023-04-28T08:10:04.994Z,40.76
2023-04-28T08:12:31.426Z,40.63
2023-04-28T08:14:57.828Z,40.39
2023-04-28T08:17:24.278Z,40.29
2023-04-28T08:19:50.673Z,39.81
2023-04-28T08:22:17.045Z,38.87
2023-04-28T08:24:43.479Z,38.31
2023-04-28T08:27:09.897Z,38.02
2023-04-28T08:29:37.354Z,37.73
2023-04-28T08:32:03.834Z,37.35
2023-04-28T08:34:30.180Z,36.41
2023-04-28T08:36:56.629Z,36.54
2023-04-28T08:39:23.079Z,36.91
2023-04-28T08:41:49.450Z,37.09
2023-04-28T08:44:18.232Z,36.31
2023-04-28T08:46:44.466Z,36.71
2023-04-28T08:49:10.834Z,36.37
2023-04-28T08:51:38.141Z,35.66
2023-04-28T08:54:29.551Z,36.12
2023-04-28T08:56:30.474Z,35.95
2023-04-28T08:58:56.964Z,35.65
2023-04-28T09:01:23.387Z,35.53
2023-04-28T09:03:50.070Z,35.07
2023-04-28T09:06:16.359Z,35.10
2023-04-28T09:08:42.769Z,34.96
2023-04-28T09:11:09.214Z,33.76
2023-04-28T09:13:35.590Z,33.85
2023-04-28T09:16:02.089Z,33.87
2023-04-28T09:18:28.481Z,33.64
2023-04-28T09:20:54.876Z,33.09
2023-04-28T09:23:21.262Z,33.18
2023-04-28T09:25:50.057Z,32.86
2023-04-28T09:28:16.447Z,32.62
2023-04-28T09:30:42.881Z,32.86
2023-04-28T09:33:11.412Z,32.52
2023-04-28T09:35:35.754Z,32.25
2023-04-28T09:38:02.169Z,32.16
2023-04-28T09:40:29.018Z,31.83
2023-04-28T09:42:55.487Z,31.64
2023-04-28T09:45:22.947Z,31.69
2023-04-28T09:47:49.799Z,31.57
2023-04-28T09:50:16.212Z,30.97
2023-04-28T09:52:42.959Z,30.95
2023-04-28T09:55:09.414Z,30.75
2023-04-28T09:57:35.798Z,30.23
2023-04-28T10:00:02.243Z,30.40
2023-04-28T10:04:55.269Z,30.21
2023-04-28T10:07:21.490Z,30.63
2023-04-28T10:09:47.882Z,30.21
2023-04-28T10:12:14.746Z,29.69
2023-04-28T10:14:41.327Z,29.79
2023-04-28T10:17:07.594Z,29.59
2023-04-28T10:19:34.002Z,29.49
2023-04-28T10:22:00.421Z,29.65
2023-04-28T10:24:27.187Z,29.41
2023-04-28T10:26:53.537Z,29.04
2023-04-28T10:29:20.254Z,29.19
2023-04-28T10:31:46.725Z,28.98
2023-04-28T10:34:13.423Z,29.30
2023-04-28T10:36:39.922Z,28.88
2023-04-28T10:39:06.336Z,29.49
2023-04-28T10:41:32.754Z,29.54
2023-04-28T10:44:00.558Z,29.88
2023-04-28T10:46:27.230Z,30.55
2023-04-28T10:48:54.578Z,29.08
2023-04-28T10:51:21.061Z,28.84
2023-04-28T10:53:47.761Z,28.34
2023-04-28T10:56:13.956Z,28.28
2023-04-28T10:58:40.430Z,28.27
2023-04-28T11:01:06.849Z,28.68
2023-04-28T11:03:34.105Z,28.04
2023-04-28T11:06:00.427Z,28.00
2023-04-28T11:08:26.816Z,27.99
2023-04-28T11:10:53.234Z,28.23
2023-04-28T11:13:19.659Z,27.60
2023-04-28T11:15:46.034Z,27.37
2023-04-28T11:18:12.484Z,26.81
2023-04-28T11:20:38.883Z,26.83
2023-04-28T11:23:05.297Z,26.43
2023-04-28T11:25:31.699Z,25.79
2023-04-28T11:27:58.146Z,26.70
2023-04-28T11:30:24.517Z,26.80
2023-04-28T11:32:52.061Z,26.53
2023-04-28T11:35:18.419Z,26.54
2023-04-28T11:37:44.821Z,26.41
2023-04-28T11:40:11.731Z,26.47
2023-04-28T11:42:38.572Z,27.06
2023-04-28T11:45:04.984Z,27.52
2023-04-28T11:47:31.530Z,26.95
2023-04-28T11:49:57.941Z,26.57
2023-04-28T11:52:24.385Z,26.79
2023-04-28T11:54:50.803Z,27.12
2023-04-28T11:57:17.200Z,26.83
2023-04-28T11:59:44.041Z,27.48
2023-04-28T12:02:10.307Z,27.34
2023-04-28T12:04:36.682Z,27.69
2023-04-28T12:07:03.179Z,27.60
2023-04-28T12:09:29.570Z,28.25
2023-04-28T12:11:57.396Z,29.28
2023-04-28T12:14:23.827Z,28.77
2023-04-28T12:16:50.206Z,28.45
2023-04-28T12:19:16.609Z,27.99
2023-04-28T12:21:43.083Z,27.54
2023-04-28T12:24:09.468Z,27.62
2023-04-28T12:26:35.881Z,27.57
2023-04-28T12:29:02.718Z,28.00
2023-04-28T12:31:29.188Z,28.24
2023-04-28T12:33:55.631Z,28.39
2023-04-28T12:36:22.065Z,28.46
2023-04-28T12:38:48.491Z,28.00
2023-04-28T12:41:14.887Z,28.20
2023-04-28T12:43:41.249Z,28.46
2023-04-28T12:46:07.740Z,28.62
2023-04-28T12:48:34.075Z,28.83
2023-04-28T12:51:00.529Z,28.40
2023-04-28T12:53:27.038Z,28.61
2023-04-28T12:55:53.438Z,28.54
2023-04-28T12:58:19.812Z,28.64
2023-04-28T13:00:46.307Z,28.95
2023-04-28T13:03:12.799Z,28.73
2023-04-28T13:05:39.103Z,28.82
2023-04-28T13:08:05.530Z,29.01
2023-04-28T13:10:31.970Z,28.79
2023-04-28T13:12:58.394Z,28.68
2023-04-28T13:15:24.827Z,28.58
2023-04-28T13:17:51.310Z,28.77
2023-04-28T13:20:17.627Z,28.67
2023-04-28T13:22:44.073Z,28.69
2023-04-28T13:25:10.532Z,28.78
2023-04-28T13:27:37.768Z,29.07
2023-04-28T13:30:03.933Z,29.32
2023-04-28T13:32:30.242Z,29.50
2023-04-28T13:34:56.613Z,29.58
2023-04-28T13:37:23.074Z,29.51
2023-04-28T13:39:49.514Z,29.47
2023-04-28T13:42:15.915Z,29.74
2023-04-28T13:44:42.290Z,29.48
2023-04-28T13:47:08.665Z,29.55
2023-04-28T13:49:35.103Z,29.76
2023-04-28T13:52:02.992Z,29.93
2023-04-28T13:54:29.662Z,30.03
2023-04-28T13:56:56.144Z,30.08
2023-04-28T13:59:22.709Z,30.17
2023-04-28T14:01:49.310Z,30.17
2023-04-28T14:04:15.814Z,30.12
2023-04-28T14:06:42.132Z,30.11
2023-04-28T14:09:08.583Z,30.25
2023-04-28T14:11:34.970Z,30.25
2023-04-28T14:14:01.396Z,30.32
2023-04-28T14:16:28.062Z,30.27
2023-04-28T14:18:54.326Z,30.69
2023-04-28T14:21:20.734Z,30.64
2023-04-28T14:23:47.099Z,31.07
2023-04-28T14:26:13.474Z,31.19
2023-04-28T14:28:39.890Z,31.19
2023-04-28T14:31:06.466Z,31.35
2023-04-28T14:33:32.812Z,31.26
2023-04-28T14:35:59.253Z,31.35
2023-04-28T14:38:25.872Z,31.27
2023-04-28T14:40:52.232Z,31.55
2023-04-28T14:43:18.654Z,31.42
2023-04-28T14:45:45.055Z,31.43
2023-04-28T14:48:11.448Z,31.69
2023-04-28T14:50:37.913Z,31.41
2023-04-28T14:53:04.457Z,31.61
2023-04-28T14:55:30.851Z,31.70
2023-04-28T14:57:57.221Z,31.87
2023-04-28T15:00:23.757Z,31.70
2023-04-28T15:02:50.297Z,31.86
2023-04-28T15:05:16.550Z,31.98
2023-04-28T15:07:43.006Z,31.82
2023-04-28T15:10:09.420Z,31.94
2023-04-28T15:12:35.828Z,32.08
2023-04-28T15:15:02.357Z,32.23
2023-04-28T15:17:28.898Z,32.06
2023-04-28T15:19:55.296Z,32.09
2023-04-28T15:22:21.810Z,32.05
2023-04-28T15:24:48.462Z,31.86
2023-04-28T15:27:14.571Z,31.89
2023-04-28T15:29:41.002Z,32.02
2023-04-28T15:32:07.414Z,31.99
2023-04-28T15:34:34.090Z,32.05
2023-04-28T15:37:00.448Z,32.13
2023-04-28T15:39:26.879Z,32.28
2023-04-28T15:41:53.268Z,32.58
2023-04-28T15:44:19.662Z,32.48
2023-04-28T15:46:46.117Z,32.54
2023-04-28T15:49:12.550Z,32.64
2023-04-28T15:51:38.929Z,32.87
2023-04-28T15:54:05.317Z,32.68
2023-04-28T15:56:31.665Z,32.77
2023-04-28T15:58:58.106Z,32.69
2023-04-28T16:01:24.538Z,32.83
2023-04-28T16:03:51.059Z,32.89
2023-04-28T16:06:17.362Z,32.78
2023-04-28T16:08:43.769Z,32.75
2023-04-28T16:11:10.232Z,32.89
2023-04-28T16:13:36.743Z,32.73
2023-04-28T16:16:03.182Z,33.29
2023-04-28T16:18:29.594Z,33.32
2023-04-28T16:20:55.968Z,33.14
2023-04-28T16:23:22.419Z,32.95
2023-04-28T16:25:48.828Z,33.10
2023-04-28T16:28:15.275Z,33.22
2023-04-28T16:30:41.869Z,33.59
2023-04-28T16:33:08.251Z,33.56
2023-04-28T16:35:36.228Z,33.42
2023-04-28T16:38:02.637Z,33.64
2023-04-28T16:40:29.144Z,33.54
2023-04-28T16:42:55.535Z,33.48
2023-04-28T16:45:21.895Z,33.72
2023-04-28T16:47:48.375Z,33.91
2023-04-28T16:50:14.944Z,34.18
2023-04-28T16:52:41.116Z,34.31
2023-04-28T16:55:07.520Z,34.41
2023-04-28T16:57:33.917Z,34.64
2023-04-28T17:00:00.372Z,35.21
2023-04-28T17:02:27.169Z,37.52
2023-04-28T17:04:53.541Z,38.10
2023-04-28T17:07:19.963Z,37.38
2023-04-28T17:09:46.346Z,36.96
2023-04-28T17:12:12.800Z,36.73
2023-04-28T17:14:39.203Z,36.73
2023-04-28T17:17:05.616Z,36.70
2023-04-28T17:19:32.020Z,36.71
2023-04-28T17:21:58.461Z,36.60
2023-04-28T17:24:24.956Z,36.76
2023-04-28T17:26:52.447Z,37.01
2023-04-28T17:29:18.857Z,37.07
2023-04-28T17:31:45.353Z,37.26
2023-04-28T17:34:11.770Z,37.36
2023-04-28T17:36:38.185Z,38.13
2023-04-28T17:39:04.610Z,38.18
2023-04-28T17:41:31.013Z,38.39
2023-04-28T17:43:57.638Z,38.26
2023-04-28T17:46:24.130Z,37.75
2023-04-28T17:48:50.540Z,37.92
2023-04-28T17:51:17.036Z,38.07
2023-04-28T17:53:43.499Z,38.42
2023-04-28T17:56:09.820Z,38.82
2023-04-28T17:58:36.444Z,39.28
2023-04-28T18:01:02.838Z,39.51
2023-04-28T18:03:29.434Z,41.58
2023-04-28T18:05:55.776Z,41.23
2023-04-28T18:08:22.304Z,41.22
2023-04-28T18:10:48.680Z,41.24
2023-04-28T18:13:15.106Z,41.54
2023-04-28T18:15:41.591Z,41.82
2023-04-28T18:18:08.007Z,41.97
2023-04-28T18:20:34.499Z,41.99
2023-04-28T18:23:00.823Z,42.03
2023-04-28T18:25:27.282Z,42.34
2023-04-28T18:27:53.753Z,42.26
2023-04-28T18:30:20.115Z,42.45
2023-04-28T18:32:46.621Z,42.29
2023-04-28T18:35:13.051Z,42.38
2023-04-28T18:37:39.489Z,42.63
2023-04-28T18:40:05.920Z,42.96
2023-04-28T18:42:32.382Z,42.96
2023-04-28T18:44:58.906Z,42.92
2023-04-28T18:47:25.304Z,43.11
2023-04-28T18:49:51.813Z,43.09
2023-04-28T18:52:18.173Z,43.04
2023-04-28T18:54:45.291Z,43.27
2023-04-28T18:57:12.000Z,43.32
2023-04-28T18:59:38.613Z,43.35
2023-04-28T19:02:05.481Z,43.58
2023-04-28T19:04:32.322Z,43.50
2023-04-28T19:07:00.130Z,43.42
2023-04-28T19:09:27.267Z,43.62
2023-04-28T19:11:54.519Z,43.49
2023-04-28T19:14:21.391Z,43.81
2023-04-28T19:16:48.454Z,44.08
2023-04-28T19:19:17.255Z,44.34
2023-04-28T19:21:43.867Z,44.24
2023-04-28T19:24:13.086Z,44.29
2023-04-28T19:26:39.421Z,44.37
2023-04-28T19:29:05.923Z,44.47
2023-04-28T19:31:32.380Z,44.82
2023-04-28T19:33:58.767Z,45.07
2023-04-28T19:36:25.220Z,45.23
2023-04-28T19:38:51.687Z,45.28
2023-04-28T19:41:18.145Z,45.40
2023-04-28T19:43:44.491Z,45.52
2023-04-28T19:46:10.974Z,45.69
2023-04-28T19:48:37.376Z,45.82
2023-04-28T19:51:03.879Z,46.15
2023-04-28T19:53:30.310Z,46.33
2023-04-28T19:55:56.679Z,46.42
2023-04-28T19:58:23.126Z,46.37
2023-04-28T20:00:49.564Z,46.63
2023-04-28T20:03:16.075Z,46.56
2023-04-28T20:05:43.387Z,46.79
2023-04-28T20:08:09.863Z,46.90
2023-04-28T20:10:36.377Z,47.07
2023-04-28T20:13:02.879Z,47.16
2023-04-28T20:15:29.364Z,47.25
2023-04-28T20:17:55.822Z,47.29
2023-04-28T20:20:22.157Z,47.57
2023-04-28T20:22:48.777Z,47.62
2023-04-28T20:25:15.148Z,47.64
2023-04-28T20:27:41.562Z,47.75
2023-04-28T20:30:08.100Z,47.85
2023-04-28T20:32:34.585Z,48.10
2023-04-28T20:35:02.721Z,48.28
2023-04-28T20:37:30.605Z,48.30
2023-04-28T20:39:57.072Z,48.43
2023-04-28T20:42:23.432Z,48.30
2023-04-28T20:44:50.016Z,48.24
2023-04-28T20:47:16.411Z,48.28
2023-04-28T20:49:42.864Z,48.30
2023-04-28T20:52:11.328Z,48.76
2023-04-28T20:54:36.007Z,49.05
2023-04-28T20:57:02.250Z,49.04
2023-04-28T20:59:29.986Z,48.90
2023-04-28T21:01:55.264Z,48.81
2023-04-28T21:04:21.690Z,48.82
2023-04-28T21:06:48.200Z,48.80
2023-04-28T21:09:14.648Z,48.81
2023-04-28T21:11:41.117Z,48.75
2023-04-28T21:14:07.612Z,48.80
2023-04-28T21:16:34.055Z,48.92
2023-04-28T21:19:00.436Z,48.96
2023-04-28T21:21:26.873Z,48.97
2023-04-28T21:23:53.291Z,49.25
2023-04-28T21:26:19.659Z,49.33
2023-04-28T21:28:46.097Z,49.48
2023-04-28T21:31:12.593Z,49.56
2023-04-28T21:33:39.068Z,49.74
2023-04-28T21:36:05.527Z,49.83
2023-04-28T21:38:31.967Z,49.97
2023-04-28T21:40:58.375Z,50.01
2023-04-28T21:43:24.901Z,50.21
2023-04-28T21:45:51.358Z,50.45
2023-04-28T21:48:17.813Z,50.61
2023-04-28T21:50:44.201Z,50.73
2023-04-28T21:53:10.708Z,50.82
2023-04-28T21:55:37.389Z,50.99
2023-04-28T21:58:03.895Z,51.21
2023-04-28T22:00:30.285Z,51.39
2023-04-28T22:02:56.935Z,51.53
2023-04-28T22:05:23.373Z,51.34
2023-04-28T22:07:49.809Z,51.31
2023-04-28T22:10:16.421Z,51.09
2023-04-28T22:12:43.079Z,51.22
2023-04-28T22:15:09.600Z,51.38
2023-04-28T22:17:36.205Z,51.45
2023-04-28T22:20:02.653Z,51.44
2023-04-28T22:22:29.135Z,51.53
2023-04-28T22:24:55.740Z,51.79
2023-04-28T22:27:22.149Z,51.84
2023-04-28T22:29:48.777Z,52.07
2023-04-28T22:32:15.111Z,52.17
2023-04-28T22:34:44.237Z,52.30
2023-04-28T22:37:08.217Z,52.46
2023-04-28T22:39:34.848Z,52.57
2023-04-28T22:42:01.068Z,52.71
2023-04-28T22:44:27.678Z,52.78
2023-04-28T22:46:54.339Z,52.77
2023-04-28T22:49:20.689Z,52.76
2023-04-28T22:51:47.103Z,52.82
2023-04-28T22:54:13.657Z,52.90
2023-04-28T22:56:40.107Z,53.16
2023-04-28T22:59:06.592Z,53.31
2023-04-28T23:01:33.169Z,53.43
2023-04-28T23:03:59.598Z,53.46
2023-04-28T23:06:26.108Z,53.45
2023-04-28T23:08:52.556Z,53.63
2023-04-28T23:11:19.087Z,53.76
2023-04-28T23:13:45.628Z,53.72
2023-04-28T23:16:13.725Z,53.66
2023-04-28T23:18:38.640Z,53.64
2023-04-28T23:21:05.407Z,53.77
2023-04-28T23:23:31.812Z,53.86
2023-04-28T23:25:58.632Z,53.69
2023-04-28T23:28:25.131Z,53.40
2023-04-28T23:30:51.541Z,53.44
2023-04-28T23:33:18.026Z,53.44
2023-04-28T23:35:44.511Z,53.35
2023-04-28T23:38:11.039Z,52.95
2023-04-28T23:40:37.402Z,52.64
2023-04-28T23:43:03.943Z,52.08
2023-04-28T23:45:30.518Z,51.78
2023-04-28T23:47:56.942Z,51.44
2023-04-28T23:50:23.431Z,51.18
2023-04-28T23:52:49.976Z,51.18
2023-04-28T23:55:16.632Z,51.40
2023-04-28T23:57:43.097Z,51.35
